Time;durP1;ratioP1;P1;durP2;ratioP2;P2;SDS_P1;SDS_P2;PMS_P1;PMS_P2;Temp;Humidity;BMP_temperature;BMP_pressure;BME280_temperature;BME280_humidity;BME280_pressure;Samples;Min_cycle;Max_cycle;Signal;HPM_P1;HPM_P2
2021/06/18 00:01:52;;;;;;;8.70;7.90;;;25.70;99.90;;;;;;5054320;28;20221;-63
2021/06/18 00:04:17;;;;;;;10.13;7.83;;;25.70;99.90;;;;;;5052778;28;20174;-62
2021/06/18 00:06:43;;;;;;;8.90;7.30;;;25.60;99.90;;;;;;5052709;28;20189;-64
2021/06/18 00:09:09;;;;;;;8.40;7.70;;;25.60;99.90;;;;;;5052840;28;20248;-63
2021/06/18 00:11:35;;;;;;;10.17;8.30;;;25.70;99.90;;;;;;5052798;28;20198;-63
2021/06/18 00:14:01;;;;;;;10.37;7.57;;;25.70;99.90;;;;;;5052788;28;20170;-64
2021/06/18 00:16:27;;;;;;;8.83;7.27;;;25.70;99.90;;;;;;5053979;28;20440;-63
2021/06/18 00:18:52;;;;;;;8.03;7.23;;;25.60;99.90;;;;;;5056396;28;20170;-63
2021/06/18 00:21:18;;;;;;;9.60;8.30;;;25.60;99.90;;;;;;5036539;28;20409;-63
2021/06/18 00:23:43;;;;;;;8.10;7.50;;;25.70;99.90;;;;;;5036454;28;20181;-64
2021/06/18 00:26:09;;;;;;;8.43;7.57;;;25.70;99.90;;;;;;5036277;28;20191;-64
2021/06/18 00:28:35;;;;;;;8.70;7.80;;;25.70;99.90;;;;;;5055209;28;20198;-63
2021/06/18 00:31:02;;;;;;;8.57;7.63;;;25.50;99.90;;;;;;5056188;28;20601;-64
2021/06/18 00:33:29;;;;;;;10.10;9.03;;;25.40;99.90;;;;;;5056090;28;20496;-64
2021/06/18 00:35:55;;;;;;;9.27;8.40;;;25.30;99.90;;;;;;5055974;28;20790;-63
2021/06/18 00:38:20;;;;;;;11.87;9.33;;;25.30;99.90;;;;;;5055856;28;20420;-62
2021/06/18 00:40:47;;;;;;;9.77;8.88;;;25.20;99.90;;;;;;5055473;28;20408;-63
2021/06/18 00:43:12;;;;;;;10.67;8.50;;;25.30;99.90;;;;;;5055915;28;20304;-62
2021/06/18 00:45:38;;;;;;;8.97;8.23;;;25.30;99.90;;;;;;5055819;28;20519;-63
2021/06/18 00:48:05;;;;;;;9.10;8.30;;;25.30;99.90;;;;;;5055726;28;20178;-63
2021/06/18 00:50:31;;;;;;;10.73;9.63;;;25.30;99.90;;;;;;5055704;28;20217;-63
2021/06/18 00:52:57;;;;;;;9.77;8.60;;;25.10;99.90;;;;;;5055636;28;20781;-63
2021/06/18 00:55:23;;;;;;;10.73;9.10;;;25.00;99.90;;;;;;5055401;28;20435;-62
2021/06/18 00:57:50;;;;;;;10.77;8.60;;;25.00;99.90;;;;;;5055741;28;20413;-64
2021/06/18 01:00:17;;;;;;;10.03;9.10;;;24.90;99.90;;;;;;5055334;28;20433;-63
2021/06/18 01:02:42;;;;;;;9.70;8.60;;;24.90;99.90;;;;;;5055199;28;20413;-63
2021/06/18 01:05:12;;;;;;;10.37;9.37;;;24.90;99.90;;;;;;5055436;28;20963;-63
2021/06/18 01:08:05;;;;;;;9.87;8.77;;;24.80;99.90;;;;;;5055126;28;20174;-63
2021/06/18 01:10:42;;;;;;;9.60;8.60;;;24.90;99.90;;;;;;5055374;28;20452;-63
2021/06/18 01:13:23;;;;;;;9.53;8.63;;;24.80;99.90;;;;;;5055035;28;20432;-63
2021/06/18 01:16:00;;;;;;;10.00;9.17;;;24.90;99.90;;;;;;5055135;28;20452;-62
2021/06/18 01:18:33;;;;;;;9.80;8.60;;;24.90;99.90;;;;;;5055530;28;20427;-63
2021/06/18 01:21:22;;;;;;;11.90;10.27;;;24.80;99.90;;;;;;5054979;28;20821;-64
2021/06/18 01:23:50;;;;;;;9.93;8.87;;;24.80;99.90;;;;;;5035145;28;20485;-63
2021/06/18 01:26:52;;;;;;;10.47;9.40;;;24.80;99.90;;;;;;5051437;28;20463;-63
2021/06/18 01:29:20;;;;;;;10.13;8.97;;;24.90;99.90;;;;;;5055101;28;20497;-63
2021/06/18 01:31:49;;;;;;;10.80;9.70;;;24.90;99.90;;;;;;5055087;28;20464;-63
2021/06/18 01:34:24;;;;;;;10.33;9.37;;;24.80;99.90;;;;;;5055342;28;20470;-63
2021/06/18 01:36:54;;;;;;;11.30;10.20;;;24.70;99.90;;;;;;5055009;28;20444;-63
2021/06/18 01:39:21;;;;;;;10.13;9.13;;;24.70;99.90;;;;;;5054804;28;20745;-63
2021/06/18 01:41:49;;;;;;;11.87;8.90;;;24.70;99.90;;;;;;5054905;28;20431;-62
2021/06/18 01:44:16;;;;;;;10.43;9.43;;;24.80;99.90;;;;;;5054682;28;20411;-63
2021/06/18 01:46:44;;;;;;;10.17;9.10;;;24.80;99.90;;;;;;5055089;28;20429;-62
2021/06/18 01:49:13;;;;;;;9.87;9.00;;;24.80;99.90;;;;;;5054775;28;20448;-63
2021/06/18 01:51:39;;;;;;;10.77;9.60;;;24.80;99.90;;;;;;5054046;28;20476;-62
2021/06/18 01:54:06;;;;;;;11.60;9.67;;;24.90;99.90;;;;;;5057791;28;20424;-63
2021/06/18 01:56:35;;;;;;;11.10;10.00;;;24.80;99.90;;;;;;5062617;28;20436;-62
2021/06/18 01:59:02;;;;;;;11.00;10.10;;;24.90;99.90;;;;;;5063156;28;20444;-63
2021/06/18 02:01:34;;;;;;;11.57;10.37;;;24.80;99.90;;;;;;5062882;28;20420;-63
2021/06/18 02:04:02;;;;;;;11.70;10.50;;;24.80;99.90;;;;;;5063239;28;20429;-63
2021/06/18 02:06:29;;;;;;;11.37;10.37;;;24.70;99.90;;;;;;5057843;28;20476;-63
2021/06/18 02:08:58;;;;;;;12.60;10.67;;;24.50;99.90;;;;;;5055077;28;20416;-63
2021/06/18 02:11:26;;;;;;;11.93;10.93;;;24.40;99.90;;;;;;5054915;28;20551;-63
2021/06/18 02:13:54;;;;;;;10.80;9.90;;;24.30;99.90;;;;;;5054361;28;20954;-63
2021/06/18 02:16:20;;;;;;;12.23;11.03;;;24.20;99.90;;;;;;5053401;28;20524;-62
2021/06/18 02:18:46;;;;;;;11.47;10.47;;;24.20;99.90;;;;;;5055173;28;20412;-63
2021/06/18 02:21:14;;;;;;;10.20;9.30;;;24.20;99.90;;;;;;5054278;28;20408;-63
2021/06/18 02:23:40;;;;;;;11.47;10.53;;;24.30;99.90;;;;;;5053725;28;20416;-62
2021/06/18 02:26:07;;;;;;;11.18;10.18;;;24.30;99.90;;;;;;5054255;28;20438;-63
2021/06/18 02:28:33;;;;;;;9.07;8.20;;;24.30;99.90;;;;;;5054370;28;20176;-62
2021/06/18 02:30:59;;;;;;;12.37;10.77;;;24.30;99.90;;;;;;5053489;28;20484;-62
2021/06/18 02:33:24;;;;;;;12.90;11.33;;;24.40;99.90;;;;;;5053601;28;20202;-62
2021/06/18 02:35:50;;;;;;;13.53;10.80;;;24.30;99.90;;;;;;5053808;28;20619;-63
2021/06/18 02:38:16;;;;;;;11.40;10.40;;;24.30;99.90;;;;;;5054506;28;20174;-63
2021/06/18 02:40:43;;;;;;;13.50;12.20;;;24.30;99.90;;;;;;5054208;28;20253;-63
2021/06/18 02:43:09;;;;;;;12.90;11.67;;;24.30;99.90;;;;;;5054115;28;20444;-63
2021/06/18 02:45:36;;;;;;;11.43;10.30;;;24.20;99.90;;;;;;5053561;28;20991;-63
2021/06/18 02:48:10;;;;;;;12.03;11.00;;;24.20;99.90;;;;;;5054258;28;20170;-63
2021/06/18 02:50:48;;;;;;;11.93;10.83;;;24.20;99.90;;;;;;5050672;28;20514;-63
2021/06/18 02:53:36;;;;;;;11.73;10.73;;;24.20;99.90;;;;;;5042197;28;20945;-63
2021/06/18 02:56:24;;;;;;;11.43;10.30;;;24.20;99.90;;;;;;5039340;28;20226;-63
2021/06/18 02:59:13;;;;;;;13.10;11.93;;;24.30;99.90;;;;;;5053451;28;20424;-63
2021/06/18 03:01:40;;;;;;;12.10;11.00;;;24.30;99.90;;;;;;5052954;28;20947;-63
2021/06/18 03:04:09;;;;;;;11.63;10.53;;;24.30;99.90;;;;;;5053319;28;20246;-63
2021/06/18 03:06:40;;;;;;;13.03;11.77;;;24.30;99.90;;;;;;5053234;28;20511;-63
2021/06/18 03:09:07;;;;;;;13.03;11.93;;;24.30;99.90;;;;;;5053413;28;20401;-63
2021/06/18 03:11:39;;;;;;;15.60;14.20;;;24.30;99.90;;;;;;5052960;28;20460;-63
2021/06/18 03:14:10;;;;;;;13.70;12.40;;;24.20;99.90;;;;;;5053340;28;20478;-63
2021/06/18 03:16:39;;;;;;;15.07;13.57;;;23.90;99.90;;;;;;5053306;28;20432;-63
2021/06/18 03:19:08;;;;;;;13.50;12.10;;;23.70;99.90;;;;;;5052856;28;20424;-64
2021/06/18 03:21:36;;;;;;;12.30;11.10;;;23.70;99.90;;;;;;5052774;28;20423;-64
2021/06/18 03:24:03;;;;;;;12.17;11.07;;;23.70;99.90;;;;;;5051595;28;20447;-64
2021/06/18 03:26:30;;;;;;;12.87;11.80;;;23.90;99.90;;;;;;5053270;28;20429;-63
2021/06/18 03:28:57;;;;;;;13.00;11.80;;;24.00;99.90;;;;;;5053045;28;20489;-63
2021/06/18 03:31:24;;;;;;;13.93;12.57;;;24.10;99.90;;;;;;5053186;28;20456;-63
2021/06/18 03:33:50;;;;;;;15.70;14.17;;;24.10;99.90;;;;;;5052756;28;20421;-63
2021/06/18 03:36:21;;;;;;;15.70;14.00;;;24.10;99.90;;;;;;5053171;28;20440;-63
2021/06/18 03:38:48;;;;;;;15.63;14.13;;;23.90;99.90;;;;;;5053001;28;20425;-63
2021/06/18 03:41:15;;;;;;;17.23;14.73;;;23.80;99.90;;;;;;5047581;28;20436;-63
2021/06/18 03:43:40;;;;;;;14.87;13.50;;;23.60;99.90;;;;;;5042056;28;20452;-63
2021/06/18 03:46:07;;;;;;;14.73;13.43;;;23.60;99.90;;;;;;5033160;28;20438;-63
2021/06/18 03:48:35;;;;;;;14.50;13.20;;;23.60;99.90;;;;;;5035783;28;20175;-63
2021/06/18 03:51:00;;;;;;;13.17;11.97;;;23.60;99.90;;;;;;5060358;28;20470;-63
2021/06/18 03:53:26;;;;;;;14.07;12.90;;;23.70;99.90;;;;;;5057993;28;20571;-63
2021/06/18 03:55:52;;;;;;;16.03;14.63;;;23.80;99.90;;;;;;5057691;28;20190;-63
2021/06/18 03:58:21;;;;;;;16.47;15.00;;;23.80;99.90;;;;;;5057147;28;20190;-63
2021/06/18 04:00:48;;;;;;;17.40;15.60;;;23.70;99.90;;;;;;5057645;28;20174;-63
2021/06/18 04:03:15;;;;;;;16.50;14.97;;;23.50;99.90;;;;;;5057199;28;20416;-64
2021/06/18 04:05:42;;;;;;;15.60;14.00;;;23.40;99.90;;;;;;5057322;28;20857;-64
2021/06/18 04:08:09;;;;;;;17.30;15.60;;;23.30;99.90;;;;;;5056872;28;20409;-62
2021/06/18 04:10:37;;;;;;;18.13;16.23;;;23.30;99.90;;;;;;5056594;28;20883;-62
2021/06/18 04:13:03;;;;;;;17.33;15.53;;;23.30;99.90;;;;;;5055536;28;20428;-62
2021/06/18 04:15:29;;;;;;;17.77;16.07;;;23.20;99.90;;;;;;5057297;28;20420;-63
2021/06/18 04:17:55;;;;;;;18.67;16.87;;;23.10;99.90;;;;;;5057485;28;20403;-63
2021/06/18 04:20:22;;;;;;;17.93;15.97;;;23.10;99.90;;;;;;5060636;28;20175;-62
2021/06/18 04:22:50;;;;;;;17.90;16.20;;;23.10;99.90;;;;;;5064743;28;20182;-63
2021/06/18 04:25:15;;;;;;;15.10;13.50;;;23.10;99.90;;;;;;5065153;28;20449;-64
2021/06/18 04:27:41;;;;;;;16.87;15.13;;;23.20;99.90;;;;;;5065325;28;20416;-63
2021/06/18 04:30:12;;;;;;;16.70;15.20;;;23.30;99.90;;;;;;5064469;28;20182;-63
2021/06/18 04:32:38;;;;;;;16.50;15.00;;;23.40;99.90;;;;;;5063436;28;20181;-64
2021/06/18 04:35:05;;;;;;;16.93;15.20;;;23.50;99.90;;;;;;5064404;28;20428;-64
2021/06/18 04:37:33;;;;;;;15.40;13.60;;;23.60;99.90;;;;;;5063548;28;20487;-64
2021/06/18 04:39:59;;;;;;;16.97;15.40;;;23.70;99.90;;;;;;5057782;28;20412;-64
2021/06/18 04:42:24;;;;;;;18.57;15.70;;;23.70;99.90;;;;;;5055929;28;20417;-64
2021/06/18 04:44:50;;;;;;;18.07;16.37;;;23.60;99.90;;;;;;5054747;28;20948;-64
2021/06/18 04:47:15;;;;;;;19.60;17.60;;;23.50;99.90;;;;;;5056067;28;20408;-64
2021/06/18 04:49:41;;;;;;;17.87;16.17;;;23.40;99.90;;;;;;5056104;28;20166;-63
2021/06/18 04:52:07;;;;;;;17.60;15.87;;;23.40;99.90;;;;;;5056215;28;20222;-63
2021/06/18 04:54:33;;;;;;;16.33;14.37;;;23.50;99.90;;;;;;5055531;28;20178;-63
2021/06/18 04:56:58;;;;;;;16.70;15.10;;;23.70;99.90;;;;;;5056222;28;20405;-64
2021/06/18 04:59:24;;;;;;;16.33;13.93;;;23.80;99.90;;;;;;5055854;28;20535;-64
2021/06/18 05:01:50;;;;;;;17.77;15.90;;;24.00;99.90;;;;;;5054678;28;20217;-63
2021/06/18 05:04:16;;;;;;;17.90;15.63;;;24.10;99.90;;;;;;5055551;28;20903;-63
2021/06/18 05:06:42;;;;;;;16.97;15.47;;;24.30;99.90;;;;;;5059528;28;20207;-64
2021/06/18 05:09:07;;;;;;;16.70;15.10;;;24.40;99.90;;;;;;5070491;28;20204;-63
2021/06/18 05:11:33;;;;;;;16.77;15.27;;;24.50;99.90;;;;;;5055300;28;20732;-66
2021/06/18 05:13:58;;;;;;;18.70;16.57;;;24.50;99.90;;;;;;5062135;28;20231;-63
2021/06/18 05:16:27;;;;;;;20.53;17.77;;;24.50;99.90;;;;;;5054042;28;20379;-64
2021/06/18 05:18:52;;;;;;;15.37;13.97;;;24.30;99.90;;;;;;5055073;28;20288;-64
2021/06/18 05:21:18;;;;;;;16.00;14.40;;;24.20;99.90;;;;;;5054692;28;20504;-64
2021/06/18 05:23:44;;;;;;;17.80;14.70;;;24.30;99.90;;;;;;5072700;28;20185;-65
2021/06/18 05:26:10;;;;;;;16.83;15.43;;;24.50;99.90;;;;;;5058931;28;20371;-65
2021/06/18 05:28:35;;;;;;;17.70;16.10;;;24.70;99.90;;;;;;5054735;28;20666;-63
2021/06/18 05:31:01;;;;;;;17.90;16.03;;;24.90;99.90;;;;;;5054897;28;20291;-64
2021/06/18 05:33:27;;;;;;;17.00;15.30;;;25.00;99.90;;;;;;5053786;28;20548;-63
2021/06/18 05:35:53;;;;;;;15.80;14.40;;;24.90;99.90;;;;;;5045670;28;20348;-63
2021/06/18 05:38:19;;;;;;;20.40;14.90;;;25.00;99.90;;;;;;5043134;28;21079;-64
2021/06/18 05:40:44;;;;;;;20.73;15.03;;;25.00;99.90;;;;;;5049537;28;20194;-63
2021/06/18 05:43:11;;;;;;;16.90;15.20;;;25.10;99.90;;;;;;5045009;28;20194;-64
2021/06/18 05:45:37;;;;;;;23.73;16.13;;;25.10;99.90;;;;;;5031509;28;20228;-64
2021/06/18 05:48:04;;;;;;;16.47;14.93;;;25.10;99.90;;;;;;5032092;28;20401;-64
2021/06/18 05:50:30;;;;;;;21.00;16.00;;;25.20;99.90;;;;;;5041050;28;20468;-63
2021/06/18 05:52:55;;;;;;;17.63;15.90;;;25.20;99.90;;;;;;5051768;28;20422;-64
2021/06/18 05:55:21;;;;;;;18.80;17.13;;;25.20;99.90;;;;;;5050833;28;20206;-63
2021/06/18 05:57:52;;;;;;;17.80;16.20;;;25.10;99.90;;;;;;5045502;28;20201;-65
2021/06/18 06:00:18;;;;;;;16.00;14.60;;;25.00;99.90;;;;;;5051918;28;20185;-64
2021/06/18 06:02:43;;;;;;;17.87;16.33;;;25.00;99.90;;;;;;5051555;28;21265;-64
2021/06/18 06:05:10;;;;;;;17.30;15.67;;;25.10;99.90;;;;;;5051816;28;20468;-64
2021/06/18 06:07:36;;;;;;;16.20;14.10;;;25.10;99.90;;;;;;5051731;28;20721;-64
2021/06/18 06:10:02;;;;;;;14.17;12.93;;;25.30;99.90;;;;;;5052010;28;20416;-65
2021/06/18 06:12:27;;;;;;;15.97;14.43;;;25.30;99.90;;;;;;5051136;28;20182;-64
2021/06/18 06:14:53;;;;;;;15.40;13.90;;;25.40;99.90;;;;;;5071275;28;20439;-65
2021/06/18 06:17:18;;;;;;;17.30;15.27;;;25.50;99.90;;;;;;5071668;28;20293;-64
2021/06/18 06:19:44;;;;;;;16.93;15.00;;;25.50;99.90;;;;;;5071958;28;20174;-62
2021/06/18 06:22:10;;;;;;;14.77;13.33;;;25.60;99.90;;;;;;5066410;28;20198;-64
2021/06/18 06:24:36;;;;;;;13.10;11.90;;;25.60;99.90;;;;;;5052295;28;20178;-64
2021/06/18 06:27:02;;;;;;;13.53;12.13;;;25.70;99.90;;;;;;5064863;28;20178;-72
2021/06/18 06:29:28;;;;;;;14.80;13.50;;;25.80;99.90;;;;;;5075010;28;20427;-73
2021/06/18 06:31:54;;;;;;;13.77;12.50;;;25.90;99.90;;;;;;5075625;28;20516;-73
2021/06/18 06:34:19;;;;;;;15.03;12.27;;;26.00;99.90;;;;;;5073688;28;20186;-74
2021/06/18 06:36:45;;;;;;;15.43;11.47;;;26.00;99.90;;;;;;5073576;28;20262;-73
2021/06/18 06:39:11;;;;;;;11.90;10.77;;;26.10;99.90;;;;;;5074131;28;20235;-72
2021/06/18 06:41:36;;;;;;;12.77;10.80;;;26.20;99.90;;;;;;5074904;28;20170;-73
2021/06/18 06:44:03;;;;;;;11.53;10.33;;;26.30;99.90;;;;;;5073359;28;20679;-72
2021/06/18 06:46:28;;;;;;;10.43;9.40;;;26.40;99.90;;;;;;5071449;28;20270;-73
2021/06/18 06:48:54;;;;;;;11.70;10.53;;;26.50;99.90;;;;;;5069235;28;20440;-73
2021/06/18 06:51:19;;;;;;;11.97;10.63;;;26.60;99.90;;;;;;5060623;28;20300;-73
2021/06/18 06:53:45;;;;;;;12.97;10.30;;;26.70;99.90;;;;;;5049939;28;20190;-73
2021/06/18 06:56:11;;;;;;;13.03;11.70;;;26.70;99.90;;;;;;5040436;28;20579;-74
2021/06/18 06:58:37;;;;;;;13.03;11.40;;;26.70;99.90;;;;;;5045335;28;20194;-72
2021/06/18 07:01:03;;;;;;;11.47;10.30;;;26.70;99.90;;;;;;5056098;28;20464;-72
2021/06/18 07:03:29;;;;;;;11.77;10.43;;;26.80;99.90;;;;;;5056583;28;20198;-71
2021/06/18 07:05:54;;;;;;;12.77;11.60;;;26.80;99.90;;;;;;5055486;28;20618;-73
2021/06/18 07:08:23;;;;;;;11.10;9.90;;;26.80;99.90;;;;;;5051224;28;20231;-73
2021/06/18 07:10:49;;;;;;;12.40;11.10;;;26.90;99.90;;;;;;5050451;28;20213;-73
2021/06/18 07:13:15;;;;;;;12.50;11.40;;;27.00;99.90;;;;;;5056058;28;20431;-73
2021/06/18 07:15:41;;;;;;;11.63;10.53;;;27.10;99.90;;;;;;5070390;28;20724;-72
2021/06/18 07:18:07;;;;;;;13.63;12.20;;;27.20;99.90;;;;;;5070352;28;20404;-73
2021/06/18 07:20:33;;;;;;;13.67;12.37;;;27.20;99.90;;;;;;5070216;28;20205;-73
2021/06/18 07:22:58;;;;;;;14.07;12.70;;;27.30;99.90;;;;;;5053639;28;20228;-73
2021/06/18 07:25:24;;;;;;;15.30;13.80;;;27.20;99.90;;;;;;5049360;28;21121;-73
2021/06/18 07:27:50;;;;;;;13.13;11.93;;;27.30;99.90;;;;;;5050060;28;20185;-73
2021/06/18 07:30:16;;;;;;;13.50;11.87;;;27.40;99.90;;;;;;5049877;28;20190;-73
2021/06/18 07:32:41;;;;;;;14.10;12.63;;;27.40;99.90;;;;;;5049790;28;20178;-73
2021/06/18 07:35:07;;;;;;;15.47;13.70;;;27.50;99.90;;;;;;5050715;28;20987;-73
2021/06/18 07:37:33;;;;;;;13.30;12.00;;;27.50;99.90;;;;;;5041991;28;20254;-71
2021/06/18 07:39:58;;;;;;;14.87;13.23;;;27.50;99.90;;;;;;5032034;28;20528;-72
2021/06/18 07:42:24;;;;;;;14.00;12.77;;;27.60;99.90;;;;;;5033046;28;20170;-73
2021/06/18 07:44:49;;;;;;;14.77;13.27;;;27.70;99.90;;;;;;5052653;28;20416;-73
2021/06/18 07:47:15;;;;;;;13.37;12.10;;;27.80;99.90;;;;;;5052726;28;20214;-74
2021/06/18 07:49:41;;;;;;;15.27;12.70;;;27.80;99.90;;;;;;5052864;28;20218;-73
2021/06/18 07:52:06;;;;;;;15.27;13.67;;;27.80;99.90;;;;;;5053211;28;20319;-72
2021/06/18 07:54:32;;;;;;;13.77;12.50;;;27.90;99.70;;;;;;5052574;28;20178;-73
2021/06/18 07:56:58;;;;;;;12.83;11.50;;;27.90;99.70;;;;;;5052759;28;20174;-73
2021/06/18 07:59:23;;;;;;;14.83;12.20;;;28.10;99.60;;;;;;5052881;28;20186;-73
2021/06/18 08:01:49;;;;;;;13.63;12.23;;;28.20;99.20;;;;;;5052884;28;20256;-73
2021/06/18 08:04:15;;;;;;;12.50;11.30;;;28.20;98.40;;;;;;5052710;28;20182;-73
2021/06/18 08:06:41;;;;;;;12.93;10.33;;;28.30;98.30;;;;;;5052768;28;20440;-74
2021/06/18 08:09:07;;;;;;;11.53;10.47;;;28.40;98.10;;;;;;5052639;28;20209;-73
2021/06/18 08:11:32;;;;;;;14.13;10.90;;;28.60;97.90;;;;;;5052534;28;20214;-73
2021/06/18 08:13:58;;;;;;;10.77;9.63;;;28.70;97.60;;;;;;5064262;28;20193;-72
2021/06/18 08:16:23;;;;;;;11.03;9.93;;;28.70;97.50;;;;;;5055785;28;20230;-74
2021/06/18 08:18:49;;;;;;;10.77;9.30;;;28.70;97.30;;;;;;5052903;28;20183;-72
2021/06/18 08:21:15;;;;;;;10.43;9.43;;;28.80;96.10;;;;;;5052630;28;20177;-73
2021/06/18 08:23:41;;;;;;;11.30;10.10;;;28.80;96.00;;;;;;5045999;28;20559;-72
2021/06/18 08:26:06;;;;;;;12.47;10.50;;;28.90;95.90;;;;;;5048505;28;20531;-73
2021/06/18 08:28:32;;;;;;;11.63;9.57;;;28.90;95.40;;;;;;5052649;28;20209;-73
2021/06/18 08:30:58;;;;;;;12.20;9.00;;;29.00;94.80;;;;;;5052737;28;20241;-73
2021/06/18 08:33:24;;;;;;;12.37;10.50;;;29.10;94.90;;;;;;5046902;28;20775;-73
2021/06/18 08:35:50;;;;;;;11.67;10.57;;;29.30;95.10;;;;;;5043533;28;20579;-73
2021/06/18 08:38:16;;;;;;;13.17;10.83;;;29.50;94.90;;;;;;5056036;28;20890;-73
2021/06/18 08:40:41;;;;;;;16.05;10.30;;;29.70;94.80;;;;;;5053765;28;20420;-72
2021/06/18 08:43:07;;;;;;;11.60;10.50;;;29.80;94.80;;;;;;5045179;28;20198;-72
2021/06/18 08:45:33;;;;;;;11.03;9.93;;;29.90;94.40;;;;;;5040403;28;20664;-72
2021/06/18 08:47:58;;;;;;;10.93;9.83;;;30.10;94.20;;;;;;5042065;28;20190;-73
2021/06/18 08:50:25;;;;;;;12.10;10.50;;;30.10;93.60;;;;;;5044702;28;20681;-72
2021/06/18 08:52:52;;;;;;;11.90;10.67;;;29.90;93.60;;;;;;5039099;28;20995;-73
2021/06/18 08:55:20;;;;;;;11.87;10.40;;;30.00;93.60;;;;;;5044117;28;20432;-73
2021/06/18 08:57:51;;;;;;;14.30;10.30;;;29.70;93.50;;;;;;5047843;28;20926;-73
2021/06/18 09:00:19;;;;;;;12.23;8.60;;;29.50;93.20;;;;;;5046952;28;20422;-73
2021/06/18 09:02:44;;;;;;;11.50;10.30;;;29.20;92.70;;;;;;5043135;28;20460;-71
2021/06/18 09:05:15;;;;;;;11.27;10.10;;;29.20;93.70;;;;;;5043290;28;20456;-73
2021/06/18 09:08:18;;;;;;;12.00;9.90;;;29.10;93.90;;;;;;5044060;28;20605;-71
2021/06/18 09:10:44;;;;;;;16.03;10.30;;;29.10;94.00;;;;;;5044184;28;20470;-72
2021/06/18 09:13:18;;;;;;;16.57;10.40;;;29.20;94.10;;;;;;5046093;28;20534;-71
2021/06/18 09:15:56;;;;;;;11.90;9.50;;;29.40;94.10;;;;;;5042818;28;20197;-72
2021/06/18 09:18:39;;;;;;;13.07;8.70;;;29.60;93.10;;;;;;5042922;28;20494;-73
2021/06/18 09:21:24;;;;;;;11.23;9.07;;;29.50;92.20;;;;;;5031010;28;20393;-74
2021/06/18 09:23:53;;;;;;;19.60;9.97;;;29.50;92.50;;;;;;5039385;28;20452;-73
2021/06/18 09:26:33;;;;;;;11.90;9.00;;;29.70;92.40;;;;;;5049398;28;20490;-74
2021/06/18 09:29:13;;;;;;;11.23;9.17;;;29.70;92.00;;;;;;5044253;28;21017;-74
2021/06/18 09:32:00;;;;;;;11.23;9.77;;;29.80;92.00;;;;;;5040330;28;20563;-72
2021/06/18 09:34:46;;;;;;;11.50;9.63;;;29.80;92.10;;;;;;5044273;28;20751;-73
2021/06/18 09:37:16;;;;;;;12.90;9.10;;;29.80;92.30;;;;;;5047955;28;20508;-74
2021/06/18 09:39:58;;;;;;;13.93;10.10;;;29.90;92.40;;;;;;5038065;28;20421;-73
2021/06/18 09:42:24;;;;;;;17.87;10.03;;;30.10;92.50;;;;;;5045581;28;20436;-73
2021/06/18 09:45:09;;;;;;;13.63;8.80;;;30.20;92.20;;;;;;5050398;28;20958;-73
2021/06/18 09:47:36;;;;;;;11.73;8.47;;;30.30;91.70;;;;;;5049742;28;20447;-74
2021/06/18 09:50:31;;;;;;;11.07;8.10;;;30.40;91.70;;;;;;5045720;28;20809;-74
2021/06/18 09:53:31;;;;;;;23.80;10.47;;;30.50;91.80;;;;;;5044887;28;20437;-74
2021/06/18 09:56:09;;;;;;;19.13;9.23;;;30.60;91.30;;;;;;5052970;28;20448;-73
2021/06/18 09:58:39;;;;;;;19.20;8.90;;;30.60;91.00;;;;;;5049063;28;20494;-73
2021/06/18 10:01:26;;;;;;;20.33;10.20;;;30.60;90.60;;;;;;5048802;28;20429;-72
2021/06/18 10:04:13;;;;;;;15.63;7.03;;;30.60;90.10;;;;;;5047372;28;20581;-73
2021/06/18 10:06:40;;;;;;;14.93;8.90;;;30.50;89.60;;;;;;5051082;28;20807;-72
2021/06/18 10:09:12;;;;;;;16.33;8.17;;;30.60;89.60;;;;;;5051499;28;20834;-73
2021/06/18 10:11:42;;;;;;;12.80;8.40;;;30.70;88.10;;;;;;5033480;28;20498;-73
2021/06/18 10:14:08;;;;;;;16.73;7.97;;;30.70;87.70;;;;;;5051857;28;20482;-73
2021/06/18 10:16:34;;;;;;;10.50;7.77;;;30.80;87.80;;;;;;5052557;28;20985;-73
2021/06/18 10:19:01;;;;;;;15.87;7.87;;;30.90;87.40;;;;;;5052672;28;20186;-73
2021/06/18 10:21:29;;;;;;;8.93;6.97;;;31.00;87.60;;;;;;5052001;28;20417;-74
2021/06/18 10:24:01;;;;;;;14.60;7.60;;;31.10;87.30;;;;;;5051722;28;20439;-74
2021/06/18 10:26:28;;;;;;;11.40;7.97;;;31.20;86.30;;;;;;5052190;28;20460;-73
2021/06/18 10:28:59;;;;;;;17.63;7.90;;;31.00;85.70;;;;;;5051895;28;20474;-73
2021/06/18 10:31:50;;;;;;;17.00;8.27;;;31.10;86.30;;;;;;5052818;28;20456;-74
2021/06/18 10:34:16;;;;;;;15.23;7.60;;;31.20;86.20;;;;;;5051633;28;20419;-73
2021/06/18 10:36:44;;;;;;;11.23;6.90;;;31.30;86.00;;;;;;5071102;28;20437;-74
2021/06/18 10:39:19;;;;;;;7.43;6.47;;;31.30;85.70;;;;;;5052160;28;20206;-72
2021/06/18 10:41:52;;;;;;;13.47;5.83;;;31.30;84.90;;;;;;5051470;28;20416;-73
2021/06/18 10:44:37;;;;;;;9.50;5.90;;;31.30;83.40;;;;;;5051283;28;20521;-73
2021/06/18 10:47:35;;;;;;;6.40;5.20;;;31.40;82.90;;;;;;5052280;28;20416;-74
2021/06/18 10:50:02;;;;;;;8.83;5.33;;;31.40;80.30;;;;;;4954108;29;20421;-73
2021/06/18 10:52:39;;;;;;;12.70;5.87;;;31.50;78.90;;;;;;4954165;28;20479;-73
2021/06/18 10:55:05;;;;;;;8.50;5.70;;;31.50;79.10;;;;;;4953693;28;20922;-74
2021/06/18 10:57:31;;;;;;;11.40;5.10;;;31.60;78.70;;;;;;4954160;29;20420;-73
2021/06/18 11:00:21;;;;;;;8.07;5.60;;;31.50;78.10;;;;;;4953059;28;20449;-74
2021/06/18 11:02:47;;;;;;;26.93;8.40;;;31.60;77.90;;;;;;4948509;28;20185;-74
2021/06/18 11:05:24;;;;;;;25.70;7.00;;;31.60;77.10;;;;;;4952375;29;20437;-74
2021/06/18 11:07:50;;;;;;;19.13;6.43;;;31.60;75.90;;;;;;4953469;29;20425;-74
2021/06/18 11:10:30;;;;;;;19.43;6.17;;;31.60;75.90;;;;;;4955917;28;20410;-74
2021/06/18 11:13:05;;;;;;;15.07;5.67;;;31.50;73.80;;;;;;4973337;28;20196;-74
2021/06/18 11:15:31;;;;;;;7.80;5.80;;;31.50;74.30;;;;;;4974838;28;20440;-74
2021/06/18 11:17:59;;;;;;;12.37;5.93;;;31.50;73.20;;;;;;4974586;28;20830;-74
2021/06/18 11:20:49;;;;;;;10.83;5.13;;;31.40;72.50;;;;;;4973554;28;20211;-74
2021/06/18 11:23:27;;;;;;;11.17;5.90;;;31.50;72.60;;;;;;4969003;28;20420;-74
2021/06/18 11:26:00;;;;;;;12.00;5.80;;;31.40;72.40;;;;;;4980970;28;20452;-74
2021/06/18 11:28:26;;;;;;;10.77;5.73;;;31.40;72.40;;;;;;5049579;28;20864;-74
2021/06/18 11:31:17;;;;;;;6.67;4.70;;;31.40;72.30;;;;;;5049322;28;20503;-73
2021/06/18 11:33:47;;;;;;;10.90;4.40;;;31.60;70.80;;;;;;5046419;28;20772;-73
2021/06/18 11:36:25;;;;;;;10.70;5.20;;;31.60;69.30;;;;;;5049982;28;20441;-73
2021/06/18 11:38:55;;;;;;;9.20;5.40;;;31.70;69.00;;;;;;5049874;28;20932;-73
2021/06/18 11:41:23;;;;;;;11.27;5.20;;;31.70;69.10;;;;;;5049816;28;20428;-74
2021/06/18 11:43:51;;;;;;;7.10;5.07;;;31.70;69.40;;;;;;5049212;28;20420;-73
2021/06/18 11:46:20;;;;;;;8.33;4.43;;;31.70;68.80;;;;;;5049766;28;20433;-73
2021/06/18 11:48:47;;;;;;;8.93;5.10;;;31.70;67.10;;;;;;5048496;28;20441;-74
2021/06/18 11:51:26;;;;;;;9.13;4.47;;;31.70;68.00;;;;;;5049908;28;20571;-74
2021/06/18 11:53:52;;;;;;;6.67;5.00;;;31.70;68.60;;;;;;5049834;28;20413;-74
2021/06/18 11:56:18;;;;;;;7.73;5.20;;;31.70;68.40;;;;;;5049840;28;20467;-74
2021/06/18 11:58:46;;;;;;;8.50;4.30;;;31.70;67.30;;;;;;5049543;28;20230;-74
2021/06/18 12:01:15;;;;;;;6.57;4.70;;;31.70;63.30;;;;;;5050135;28;20185;-74
2021/06/18 12:03:45;;;;;;;5.87;4.10;;;31.30;61.00;;;;;;5056334;28;20934;-73
2021/06/18 12:06:31;;;;;;;6.87;4.40;;;31.30;61.70;;;;;;5061486;28;20823;-73
2021/06/18 12:09:16;;;;;;;6.93;4.90;;;31.30;62.70;;;;;;5062580;28;20430;-72
2021/06/18 12:11:58;;;;;;;6.93;3.83;;;31.30;62.20;;;;;;5070316;28;20586;-73
2021/06/18 12:14:24;;;;;;;5.80;3.90;;;31.30;61.90;;;;;;5072542;28;20427;-73
2021/06/18 12:16:51;;;;;;;6.47;4.00;;;31.40;62.10;;;;;;5073142;28;20443;-73
2021/06/18 12:19:23;;;;;;;5.60;3.73;;;31.30;59.10;;;;;;5056260;28;20182;-73
2021/06/18 12:22:00;;;;;;;4.27;3.93;;;31.20;55.60;;;;;;5060429;28;20424;-73
2021/06/18 12:24:28;;;;;;;5.23;4.20;;;31.20;55.50;;;;;;5073209;28;20506;-73
2021/06/18 12:26:54;;;;;;;5.90;4.03;;;31.20;56.10;;;;;;5072758;28;20466;-73
2021/06/18 12:29:20;;;;;;;6.83;3.80;;;31.20;56.00;;;;;;5060859;28;20989;-73
2021/06/18 12:31:46;;;;;;;4.73;4.23;;;31.30;56.50;;;;;;5071958;28;20546;-73
2021/06/18 12:34:14;;;;;;;9.10;4.40;;;31.30;56.30;;;;;;5066749;28;20194;-72
2021/06/18 12:36:39;;;;;;;10.30;4.57;;;31.30;55.90;;;;;;5062685;28;20193;-73
2021/06/18 12:39:12;;;;;;;6.23;4.10;;;31.30;56.30;;;;;;5067900;28;20424;-72
2021/06/18 12:41:39;;;;;;;4.53;4.13;;;31.30;55.90;;;;;;5065187;28;20412;-73
2021/06/18 12:44:07;;;;;;;5.07;4.20;;;31.30;55.60;;;;;;5057417;28;20474;-73